Time;durP1;ratioP1;P1;durP2;ratioP2;P2;SDS_P1;SDS_P2;PMS_P1;PMS_P2;Temp;Humidity;BMP_temperature;BMP_pressure;BME280_temperature;BME280_humidity;BME280_pressure;Samples;Min_cycle;Max_cycle;Signal;HPM_P1;HPM_P2
2023/07/15 00:00:18;;;;;;;10.70;4.10;;;20.00;93.40;;;;;;5053022;28;20483;-61
2023/07/15 00:02:46;;;;;;;7.47;4.60;;;19.90;93.50;;;;;;5060454;28;20503;-62
2023/07/15 00:05:24;;;;;;;11.70;5.70;;;19.90;93.80;;;;;;5056973;28;20477;-62
2023/07/15 00:07:51;;;;;;;4.83;4.43;;;19.90;93.70;;;;;;5059103;28;20476;-61
2023/07/15 00:10:21;;;;;;;11.63;4.47;;;19.90;93.70;;;;;;5061942;28;20469;-62
2023/07/15 00:12:48;;;;;;;5.37;4.13;;;19.80;93.60;;;;;;5054040;28;20807;-61
2023/07/15 00:15:15;;;;;;;13.70;5.30;;;19.70;94.50;;;;;;5052281;28;20868;-61
2023/07/15 00:17:42;;;;;;;8.00;4.80;;;19.60;94.70;;;;;;5060157;28;20576;-61
2023/07/15 00:20:14;;;;;;;19.77;4.90;;;19.50;94.90;;;;;;5055165;28;20950;-61
2023/07/15 00:22:43;;;;;;;4.33;3.83;;;19.50;94.80;;;;;;5057572;28;20994;-61
2023/07/15 00:25:13;;;;;;;7.50;4.43;;;19.50;94.60;;;;;;5058292;28;20530;-62
2023/07/15 00:27:41;;;;;;;15.23;5.57;;;19.50;94.80;;;;;;5057787;28;20493;-62
2023/07/15 00:30:09;;;;;;;6.70;4.50;;;19.50;94.60;;;;;;5059487;28;20473;-61
2023/07/15 00:32:37;;;;;;;4.40;4.00;;;;;;;;;;5063072;28;20530;-61
2023/07/15 00:35:11;;;;;;;6.70;4.50;;;19.60;94.50;;;;;;5062962;28;20477;-62
2023/07/15 00:37:38;;;;;;;6.60;4.13;;;19.60;94.80;;;;;;5063843;28;20471;-62
2023/07/15 00:40:07;;;;;;;8.67;4.27;;;19.50;95.10;;;;;;5064663;28;20833;-61
2023/07/15 00:43:02;;;;;;;5.57;4.03;;;19.50;94.80;;;;;;5063525;28;20826;-61
2023/07/15 00:45:28;;;;;;;11.93;4.43;;;19.40;94.80;;;;;;5049981;28;20470;-61
2023/07/15 00:48:06;;;;;;;10.57;4.77;;;19.40;94.90;;;;;;5063328;28;20484;-61
2023/07/15 00:50:33;;;;;;;5.03;4.23;;;19.40;94.90;;;;;;5062317;28;20474;-61
2023/07/15 00:53:00;;;;;;;4.97;4.43;;;19.40;95.00;;;;;;5059176;28;20481;-62
2023/07/15 00:55:28;;;;;;;8.03;4.50;;;19.40;95.00;;;;;;5060186;28;20489;-61
2023/07/15 00:57:57;;;;;;;17.33;5.13;;;19.30;95.80;;;;;;5063077;28;20488;-61
2023/07/15 01:00:25;;;;;;;5.23;4.20;;;19.20;95.60;;;;;;5061458;28;21234;-61
2023/07/15 01:02:52;;;;;;;6.17;4.23;;;19.20;95.40;;;;;;5045840;28;22052;-61
2023/07/15 01:05:21;;;;;;;12.60;4.63;;;19.20;95.50;;;;;;5058562;28;20831;-61
2023/07/15 01:07:48;;;;;;;10.90;4.63;;;19.30;95.50;;;;;;5061422;28;20462;-62
2023/07/15 01:10:15;;;;;;;10.23;5.10;;;19.30;95.50;;;;;;5046046;28;20568;-61
2023/07/15 01:12:41;;;;;;;11.63;4.83;;;19.40;95.40;;;;;;5065800;28;20478;-61
2023/07/15 01:15:09;;;;;;;4.97;4.20;;;19.40;95.30;;;;;;5056415;28;20475;-62
2023/07/15 01:17:36;;;;;;;7.37;4.90;;;19.40;95.40;;;;;;5036401;28;20473;-63
2023/07/15 01:20:05;;;;;;;9.90;4.30;;;19.40;95.30;;;;;;5050395;28;20472;-61
2023/07/15 01:22:37;;;;;;;6.80;4.60;;;19.40;95.30;;;;;;5062974;28;20477;-62
2023/07/15 01:25:05;;;;;;;9.30;5.53;;;19.30;95.50;;;;;;5066228;28;20482;-61
2023/07/15 01:27:33;;;;;;;13.13;4.03;;;19.30;95.40;;;;;;5066185;28;20478;-62
2023/07/15 01:30:00;;;;;;;7.50;5.00;;;19.20;95.80;;;;;;5069075;28;20474;-61
2023/07/15 01:32:27;;;;;;;5.27;4.30;;;;;;;;;;5067736;28;20480;-61
2023/07/15 01:34:54;;;;;;;9.23;5.07;;;19.00;95.90;;;;;;5053202;28;20472;-60
2023/07/15 01:37:21;;;;;;;6.50;5.20;;;18.90;95.90;;;;;;5068131;28;20476;-60
2023/07/15 01:39:50;;;;;;;7.57;4.60;;;18.90;96.00;;;;;;5066562;28;20521;-62
2023/07/15 01:42:17;;;;;;;4.40;4.00;;;18.90;95.80;;;;;;5063263;28;20485;-61
2023/07/15 01:44:44;;;;;;;4.80;4.40;;;18.90;95.80;;;;;;5066229;28;20480;-62
2023/07/15 01:47:11;;;;;;;6.10;5.13;;;18.90;95.70;;;;;;5070539;28;20489;-61
2023/07/15 01:49:37;;;;;;;4.33;3.97;;;18.90;96.00;;;;;;5069569;28;21459;-62
2023/07/15 01:52:06;;;;;;;6.53;5.47;;;18.90;95.90;;;;;;5063504;28;20830;-62
2023/07/15 01:54:33;;;;;;;10.23;4.50;;;18.70;96.60;;;;;;5065259;28;20484;-61
2023/07/15 01:57:01;;;;;;;6.80;4.67;;;18.50;96.90;;;;;;5066964;28;20483;-61
2023/07/15 01:59:28;;;;;;;5.00;4.07;;;18.40;97.10;;;;;;5062503;28;20497;-62
2023/07/15 02:01:57;;;;;;;9.83;4.53;;;18.30;97.50;;;;;;5065580;28;20480;-62
2023/07/15 02:04:24;;;;;;;6.90;5.57;;;18.30;97.60;;;;;;5067641;27;20527;-61
2023/07/15 02:06:51;;;;;;;8.90;6.27;;;18.30;97.60;;;;;;5071340;28;20912;-60
2023/07/15 02:09:18;;;;;;;16.20;6.17;;;18.30;97.40;;;;;;5057235;28;20485;-60
2023/07/15 02:11:45;;;;;;;7.70;5.40;;;18.40;97.40;;;;;;5067355;28;21112;-61
2023/07/15 02:14:13;;;;;;;5.57;4.97;;;18.40;97.60;;;;;;5056480;28;20482;-61
2023/07/15 02:16:40;;;;;;;5.30;4.80;;;18.40;97.40;;;;;;5057086;28;20557;-61
2023/07/15 02:19:07;;;;;;;5.30;4.77;;;18.40;97.20;;;;;;5054511;28;20528;-60
2023/07/15 02:21:34;;;;;;;5.93;4.77;;;18.50;97.20;;;;;;5056507;28;20488;-61
2023/07/15 02:24:01;;;;;;;5.00;4.50;;;18.40;96.80;;;;;;5056581;28;20479;-61
2023/07/15 02:26:29;;;;;;;5.63;4.53;;;18.50;96.80;;;;;;5059206;28;20571;-61
2023/07/15 02:28:56;;;;;;;5.80;4.60;;;18.50;96.70;;;;;;5057196;28;20481;-61
2023/07/15 02:31:25;;;;;;;4.93;3.93;;;18.50;96.80;;;;;;5058691;28;20463;-61
2023/07/15 02:33:51;;;;;;;8.27;6.00;;;18.50;96.80;;;;;;5055680;28;20978;-60
2023/07/15 02:36:18;;;;;;;5.13;4.63;;;18.50;96.70;;;;;;5054106;28;20479;-61
2023/07/15 02:38:45;;;;;;;16.13;5.80;;;18.50;96.80;;;;;;5056953;28;20596;-61
2023/07/15 02:41:12;;;;;;;13.30;8.07;;;18.50;96.70;;;;;;5037593;28;20484;-62
2023/07/15 02:43:39;;;;;;;7.47;5.60;;;18.50;96.70;;;;;;5036258;28;20822;-61
2023/07/15 02:46:06;;;;;;;11.60;6.00;;;18.40;96.80;;;;;;5034672;28;20488;-61
2023/07/15 02:48:34;;;;;;;8.70;5.00;;;18.40;97.00;;;;;;5036638;28;20487;-62
2023/07/15 02:51:01;;;;;;;7.57;5.80;;;18.40;96.90;;;;;;5034940;28;20486;-62
2023/07/15 02:53:29;;;;;;;11.23;4.80;;;18.40;96.60;;;;;;5035730;28;20480;-61
2023/07/15 02:55:56;;;;;;;7.90;5.20;;;18.50;96.40;;;;;;5021718;28;20500;-62
2023/07/15 02:58:23;;;;;;;8.87;5.67;;;18.50;96.50;;;;;;5018612;28;20490;-62
2023/07/15 03:00:52;;;;;;;12.93;5.93;;;18.50;96.40;;;;;;5023544;28;20495;-61
2023/07/15 03:03:18;;;;;;;9.20;6.97;;;18.50;96.60;;;;;;5021854;28;20947;-60
2023/07/15 03:05:47;;;;;;;7.60;6.80;;;18.50;96.50;;;;;;5055133;28;20469;-60
2023/07/15 03:08:15;;;;;;;11.37;5.00;;;18.60;96.60;;;;;;5027790;28;20801;-60
2023/07/15 03:10:42;;;;;;;9.40;7.30;;;18.50;96.50;;;;;;5019993;28;20480;-61
2023/07/15 03:13:09;;;;;;;12.27;8.40;;;18.50;96.90;;;;;;5022302;28;20479;-60
2023/07/15 03:15:36;;;;;;;11.20;6.07;;;18.50;96.70;;;;;;5031199;28;20484;-62
2023/07/15 03:18:03;;;;;;;13.13;7.93;;;18.40;96.50;;;;;;5028066;28;20477;-61
2023/07/15 03:20:30;;;;;;;7.70;5.57;;;18.30;96.80;;;;;;5023478;28;21065;-62
2023/07/15 03:22:58;;;;;;;10.73;6.20;;;18.30;96.80;;;;;;5026807;28;20478;-61
2023/07/15 03:25:25;;;;;;;14.63;7.60;;;18.20;96.80;;;;;;5023371;28;20494;-61
2023/07/15 03:27:52;;;;;;;14.43;7.87;;;18.10;96.90;;;;;;5027211;28;20508;-63
2023/07/15 03:30:20;;;;;;;11.60;5.63;;;18.20;97.10;;;;;;5025085;28;20985;-61
2023/07/15 03:32:48;;;;;;;8.57;7.07;;;18.20;97.10;;;;;;5026174;28;20507;-61
2023/07/15 03:35:16;;;;;;;15.20;11.00;;;18.20;97.00;;;;;;5020287;28;20491;-61
2023/07/15 03:37:44;;;;;;;15.40;6.77;;;18.20;97.10;;;;;;5043986;28;20480;-61
2023/07/15 03:40:13;;;;;;;13.40;9.77;;;18.20;97.10;;;;;;5023467;28;20480;-61
2023/07/15 03:42:40;;;;;;;11.00;7.90;;;18.10;97.30;;;;;;5051969;28;20479;-61
2023/07/15 03:45:08;;;;;;;17.73;10.27;;;18.00;97.10;;;;;;5053890;28;20480;-61
2023/07/15 03:47:35;;;;;;;10.93;7.80;;;18.00;97.10;;;;;;5061234;28;20479;-61
2023/07/15 03:50:03;;;;;;;13.23;9.00;;;18.00;97.10;;;;;;5054483;28;20561;-61
2023/07/15 03:52:30;;;;;;;6.27;5.63;;;18.10;97.40;;;;;;5023614;28;20563;-61
2023/07/15 03:54:57;;;;;;;18.23;9.10;;;18.00;97.60;;;;;;5022543;28;20810;-62
2023/07/15 03:57:26;;;;;;;16.10;8.10;;;18.10;97.70;;;;;;5023199;28;20499;-62
2023/07/15 03:59:53;;;;;;;14.00;9.37;;;18.10;97.60;;;;;;5041112;28;20987;-61
2023/07/15 04:02:20;;;;;;;17.53;10.33;;;18.10;97.80;;;;;;5038691;28;20487;-61
2023/07/15 04:04:47;;;;;;;13.80;8.10;;;18.10;98.10;;;;;;5024828;28;20476;-61
2023/07/15 04:07:14;;;;;;;17.80;11.53;;;18.00;98.10;;;;;;5019757;28;20492;-62
2023/07/15 04:09:41;;;;;;;12.40;7.57;;;18.00;98.30;;;;;;5017921;28;20481;-61
2023/07/15 04:12:09;;;;;;;17.23;10.13;;;18.00;98.50;;;;;;5014793;28;20723;-61
2023/07/15 04:14:38;;;;;;;14.20;9.20;;;18.00;98.80;;;;;;5014882;28;21006;-61
2023/07/15 04:17:05;;;;;;;19.77;11.37;;;18.10;98.60;;;;;;5015589;28;21165;-63
2023/07/15 04:19:32;;;;;;;7.47;5.40;;;18.20;99.20;;;;;;5016718;28;20498;-62
2023/07/15 04:21:58;;;;;;;11.80;8.60;;;18.20;99.30;;;;;;5026331;28;21396;-62
2023/07/15 04:24:25;;;;;;;11.13;7.20;;;18.30;99.40;;;;;;5024187;28;20862;-62
2023/07/15 04:26:52;;;;;;;11.00;7.97;;;17.50;99.40;;;;;;5022019;28;20797;-62
2023/07/15 04:29:19;;;;;;;18.03;11.23;;;18.40;99.90;;;;;;5023667;28;20479;-61
2023/07/15 04:31:47;;;;;;;12.90;7.77;;;18.40;99.90;;;;;;5023466;28;20504;-61
2023/07/15 04:34:14;;;;;;;14.30;9.23;;;18.50;99.90;;;;;;5021994;28;20476;-61
2023/07/15 04:36:41;;;;;;;15.80;10.37;;;18.60;99.90;;;;;;5024154;28;21005;-62
2023/07/15 04:39:08;;;;;;;21.83;12.60;;;18.60;99.90;;;;;;5023033;28;20560;-62
2023/07/15 04:41:36;;;;;;;9.23;6.10;;;18.70;99.70;;;;;;5017412;28;20624;-62
2023/07/15 04:44:03;;;;;;;14.67;9.70;;;18.70;99.90;;;;;;5019244;28;20772;-61
2023/07/15 04:46:30;;;;;;;10.00;7.53;;;18.80;99.90;;;;;;5013674;28;20476;-61
2023/07/15 04:48:59;;;;;;;30.23;8.80;;;18.80;99.90;;;;;;5021940;28;20472;-60
2023/07/15 04:51:26;;;;;;;13.07;7.77;;;19.00;99.90;;;;;;5014869;28;20487;-61
2023/07/15 04:53:52;;;;;;;14.13;9.10;;;19.00;99.90;;;;;;5030889;28;20478;-61
2023/07/15 04:56:19;;;;;;;21.43;10.33;;;19.10;99.90;;;;;;5029834;28;20484;-61
2023/07/15 04:58:47;;;;;;;13.67;8.27;;;19.20;99.70;;;;;;5035247;28;20482;-61
2023/07/15 05:01:14;;;;;;;22.83;12.60;;;19.20;99.90;;;;;;5036390;28;20570;-61
2023/07/15 05:03:41;;;;;;;13.53;6.77;;;19.20;99.90;;;;;;5025281;28;20864;-61
2023/07/15 05:06:10;;;;;;;19.93;11.80;;;19.30;99.90;;;;;;5018168;28;20570;-61
2023/07/15 05:08:37;;;;;;;15.97;9.70;;;19.30;99.90;;;;;;5042599;28;20479;-61
2023/07/15 05:11:04;;;;;;;17.43;7.50;;;19.30;99.80;;;;;;5034176;28;20517;-61
2023/07/15 05:13:31;;;;;;;12.10;7.47;;;19.40;99.90;;;;;;5025319;28;20551;-62
2023/07/15 05:15:58;;;;;;;19.63;9.50;;;19.50;99.90;;;;;;5027661;28;20516;-62
2023/07/15 05:18:24;;;;;;;14.60;7.70;;;19.60;99.90;;;;;;5020696;28;20494;-61
2023/07/15 05:20:51;;;;;;;13.67;8.30;;;19.60;99.90;;;;;;5029481;28;20487;-61
2023/07/15 05:23:20;;;;;;;21.90;10.73;;;19.70;99.90;;;;;;5039565;28;20487;-61
2023/07/15 05:25:47;;;;;;;12.23;7.27;;;19.80;99.90;;;;;;5041088;28;20823;-61
2023/07/15 05:28:14;;;;;;;26.83;14.13;;;19.80;99.60;;;;;;5040933;28;21001;-62
2023/07/15 05:30:41;;;;;;;13.33;8.87;;;19.90;99.80;;;;;;5039299;28;20475;-62
2023/07/15 05:33:08;;;;;;;18.07;8.20;;;20.00;99.60;;;;;;5039635;28;21059;-62
2023/07/15 05:35:35;;;;;;;13.90;9.17;;;20.20;99.20;;;;;;5017612;28;20491;-62
2023/07/15 05:38:02;;;;;;;15.23;8.80;;;20.30;99.10;;;;;;5025933;28;20484;-62
2023/07/15 05:40:30;;;;;;;10.93;5.90;;;20.50;99.10;;;;;;5034948;28;20487;-62
2023/07/15 05:42:57;;;;;;;11.10;7.17;;;20.50;98.70;;;;;;5052710;28;20496;-62
2023/07/15 05:45:24;;;;;;;13.30;9.10;;;20.70;98.20;;;;;;5036700;28;20479;-62
2023/07/15 05:47:51;;;;;;;17.90;7.50;;;20.80;98.30;;;;;;5040247;28;20476;-62
2023/07/15 05:50:17;;;;;;;14.93;10.23;;;20.90;98.70;;;;;;5040411;28;20482;-62
2023/07/15 05:52:44;;;;;;;11.93;7.80;;;21.00;99.50;;;;;;5038162;28;20518;-62
2023/07/15 05:55:11;;;;;;;15.00;8.90;;;21.10;99.90;;;;;;5034842;28;20505;-62
2023/07/15 05:57:39;;;;;;;13.20;8.63;;;21.10;99.90;;;;;;5037914;28;20490;-62
2023/07/15 06:00:08;;;;;;;11.60;8.03;;;21.20;99.90;;;;;;5036978;28;21005;-62
2023/07/15 06:02:37;;;;;;;12.03;6.37;;;21.30;99.40;;;;;;5058892;28;20491;-62
2023/07/15 06:05:04;;;;;;;11.43;7.63;;;21.40;99.60;;;;;;5056893;28;20490;-62
2023/07/15 06:07:31;;;;;;;11.03;7.27;;;21.50;99.90;;;;;;5033280;28;20474;-62
2023/07/15 06:09:58;;;;;;;17.83;6.97;;;21.60;99.80;;;;;;5036491;28;21106;-62
2023/07/15 06:12:25;;;;;;;11.17;7.60;;;21.70;99.10;;;;;;5060269;28;20934;-62
2023/07/15 06:14:53;;;;;;;13.40;9.53;;;21.70;99.20;;;;;;5033061;28;21166;-62
2023/07/15 06:17:22;;;;;;;10.87;8.20;;;21.90;98.90;;;;;;5035280;28;20485;-62
2023/07/15 06:19:49;;;;;;;12.60;8.40;;;21.90;98.50;;;;;;5038566;28;20822;-61
2023/07/15 06:22:16;;;;;;;23.33;11.80;;;22.10;98.00;;;;;;5039568;28;20570;-61
2023/07/15 06:24:43;;;;;;;10.30;7.83;;;22.20;98.40;;;;;;5038948;28;20502;-61
2023/07/15 06:27:10;;;;;;;17.03;11.70;;;22.30;97.80;;;;;;5038074;28;21016;-61
2023/07/15 06:29:37;;;;;;;20.60;9.20;;;22.40;97.40;;;;;;5045863;28;20485;-61
2023/07/15 06:32:06;;;;;;;10.93;7.93;;;22.50;97.40;;;;;;5034999;28;20856;-61
2023/07/15 06:34:33;;;;;;;11.93;6.93;;;22.60;97.50;;;;;;5036191;28;20983;-61
2023/07/15 06:37:00;;;;;;;16.87;7.10;;;22.90;97.90;;;;;;5035911;28;20490;-61
2023/07/15 06:39:27;;;;;;;11.70;7.50;;;22.90;97.50;;;;;;5032706;28;20823;-62
2023/07/15 06:41:54;;;;;;;9.87;8.10;;;23.00;97.20;;;;;;5036261;28;20486;-61
2023/07/15 06:44:20;;;;;;;16.07;9.67;;;23.30;97.50;;;;;;5034313;28;20884;-61
2023/07/15 06:46:47;;;;;;;9.93;7.27;;;23.50;97.20;;;;;;5036198;28;21045;-61
2023/07/15 06:49:15;;;;;;;19.83;12.67;;;23.60;97.00;;;;;;5035621;28;20471;-61
2023/07/15 06:51:42;;;;;;;13.83;7.60;;;24.00;97.30;;;;;;5035928;28;20479;-61
2023/07/15 06:54:09;;;;;;;17.27;10.30;;;24.20;95.70;;;;;;5033143;28;21000;-62
2023/07/15 06:56:36;;;;;;;9.07;6.80;;;;;;;;;;5035647;28;20498;-62
2023/07/15 06:59:03;;;;;;;18.23;8.07;;;24.60;95.20;;;;;;5033999;28;20476;-62
2023/07/15 07:01:30;;;;;;;8.37;6.53;;;24.70;95.10;;;;;;5034547;28;20878;-62
2023/07/15 07:03:57;;;;;;;9.93;6.93;;;24.80;94.30;;;;;;5041327;28;20486;-62
2023/07/15 07:06:27;;;;;;;10.97;7.37;;;25.10;95.60;;;;;;5034587;28;20585;-62
2023/07/15 07:08:54;;;;;;;8.50;6.87;;;25.30;94.60;;;;;;5035217;28;20888;-62
2023/07/15 07:11:21;;;;;;;12.87;9.03;;;25.40;94.50;;;;;;5033950;28;20962;-62
2023/07/15 07:13:48;;;;;;;13.37;5.80;;;25.80;92.10;;;;;;5036543;28;20483;-62
2023/07/15 07:16:15;;;;;;;13.37;9.60;;;25.90;91.10;;;;;;5034368;28;20491;-62
2023/07/15 07:18:41;;;;;;;10.30;7.63;;;26.10;90.10;;;;;;5035592;28;20446;-64
2023/07/15 07:21:08;;;;;;;12.63;7.90;;;26.20;91.00;;;;;;5033606;28;20492;-64
2023/07/15 07:23:37;;;;;;;7.33;6.20;;;26.40;89.60;;;;;;5034904;28;20486;-64
2023/07/15 07:26:03;;;;;;;9.97;6.70;;;26.40;89.00;;;;;;5032811;28;20550;-63
2023/07/15 07:28:42;;;;;;;24.13;6.17;;;26.60;89.20;;;;;;5033566;28;20790;-63
2023/07/15 07:31:09;;;;;;;11.70;7.77;;;26.80;89.40;;;;;;5032975;28;21166;-62
2023/07/15 07:33:36;;;;;;;7.30;6.47;;;27.00;90.40;;;;;;5039186;28;20979;-63
2023/07/15 07:36:04;;;;;;;8.07;5.27;;;27.10;88.50;;;;;;5038134;28;20476;-62
2023/07/15 07:38:31;;;;;;;10.03;7.27;;;27.10;88.70;;;;;;5051949;28;21023;-63
2023/07/15 07:41:06;;;;;;;7.33;6.50;;;27.30;87.50;;;;;;5029127;28;20472;-62
2023/07/15 07:43:32;;;;;;;10.90;5.27;;;27.40;86.80;;;;;;5033553;28;21017;-62
2023/07/15 07:46:00;;;;;;;9.27;6.53;;;27.40;88.00;;;;;;5037976;28;20484;-62
2023/07/15 07:48:27;;;;;;;17.73;5.93;;;27.40;86.30;;;;;;5024521;28;20462;-62
2023/07/15 07:50:54;;;;;;;11.43;6.67;;;27.40;87.10;;;;;;5043321;28;20672;-62
2023/07/15 07:53:21;;;;;;;15.83;8.80;;;27.30;86.30;;;;;;5020322;28;20814;-62
2023/07/15 07:55:48;;;;;;;26.73;7.23;;;27.20;86.90;;;;;;5012837;28;20888;-63
2023/07/15 07:58:16;;;;;;;16.37;9.90;;;27.20;87.00;;;;;;5020938;28;20455;-63
2023/07/15 08:00:43;;;;;;;8.97;7.53;;;27.00;86.60;;;;;;5018926;28;20842;-62
2023/07/15 08:03:10;;;;;;;11.00;8.13;;;27.10;87.30;;;;;;5023129;28;20480;-62
2023/07/15 08:05:42;;;;;;;7.63;6.23;;;27.10;87.80;;;;;;5021962;28;20459;-64
2023/07/15 08:08:09;;;;;;;14.80;10.20;;;27.20;89.20;;;;;;5021074;28;20454;-62
2023/07/15 08:10:35;;;;;;;16.73;6.93;;;27.50;88.70;;;;;;5016451;28;20866;-62
2023/07/15 08:13:02;;;;;;;7.50;6.43;;;27.50;86.60;;;;;;5020266;28;20889;-63
2023/07/15 08:15:31;;;;;;;6.63;5.10;;;27.50;87.30;;;;;;5021162;28;20485;-63
2023/07/15 08:17:57;;;;;;;14.73;6.80;;;27.40;86.80;;;;;;5019220;28;20815;-62
2023/07/15 08:20:24;;;;;;;9.00;7.83;;;27.30;87.20;;;;;;5024348;28;20868;-63
2023/07/15 08:22:51;;;;;;;11.03;4.20;;;27.20;87.90;;;;;;5017400;28;20480;-62
2023/07/15 08:25:18;;;;;;;13.00;6.50;;;27.10;88.20;;;;;;5023680;28;20859;-62
2023/07/15 08:27:45;;;;;;;7.37;6.60;;;27.10;88.10;;;;;;5019954;28;20471;-61
2023/07/15 08:30:12;;;;;;;10.50;9.07;;;27.00;88.40;;;;;;5019646;28;20497;-62
2023/07/15 08:32:41;;;;;;;16.33;6.13;;;27.10;88.90;;;;;;5018196;28;21070;-62
2023/07/15 08:35:08;;;;;;;17.43;8.23;;;27.20;89.00;;;;;;5027794;28;20445;-62
2023/07/15 08:37:35;;;;;;;7.40;6.70;;;27.30;89.10;;;;;;5039568;28;20461;-62
2023/07/15 08:40:02;;;;;;;12.20;6.10;;;27.30;90.00;;;;;;5020561;28;20838;-62
2023/07/15 08:42:31;;;;;;;12.43;6.40;;;27.30;90.20;;;;;;5027507;28;20453;-62
2023/07/15 08:44:58;;;;;;;9.77;6.30;;;27.30;90.50;;;;;;5026772;28;20462;-62
2023/07/15 08:47:25;;;;;;;14.87;7.13;;;27.20;90.00;;;;;;5022776;28;20478;-62
2023/07/15 08:49:56;;;;;;;18.00;8.90;;;27.20;90.30;;;;;;5029106;28;20537;-62
2023/07/15 08:52:24;;;;;;;18.27;8.93;;;;;;;;;;5031048;28;20696;-63
2023/07/15 08:54:52;;;;;;;13.37;8.37;;;27.10;90.40;;;;;;5026197;28;20475;-62
2023/07/15 08:57:22;;;;;;;13.80;9.13;;;26.90;90.20;;;;;;5020450;28;20465;-62
2023/07/15 08:59:50;;;;;;;20.73;7.70;;;26.70;90.50;;;;;;5046495;28;20445;-62
2023/07/15 09:02:17;;;;;;;15.93;11.20;;;26.70;90.80;;;;;;5028077;28;20451;-61
2023/07/15 09:04:44;;;;;;;12.90;7.80;;;26.60;90.90;;;;;;5062082;28;21119;-62
2023/07/15 09:07:12;;;;;;;20.53;10.57;;;26.70;91.30;;;;;;5060804;28;20480;-62
2023/07/15 09:09:39;;;;;;;18.33;7.50;;;26.60;91.50;;;;;;5066197;28;20469;-62
2023/07/15 09:12:09;;;;;;;13.67;9.17;;;26.70;91.40;;;;;;5061660;28;20456;-62
2023/07/15 09:14:39;;;;;;;10.40;6.63;;;26.70;91.40;;;;;;5065618;28;20961;-62
2023/07/15 09:17:06;;;;;;;8.57;7.17;;;26.70;91.60;;;;;;5061623;28;20482;-62
2023/07/15 09:19:34;;;;;;;9.03;6.83;;;26.70;91.40;;;;;;5065818;28;20460;-61
2023/07/15 09:22:05;;;;;;;20.70;7.97;;;26.90;91.30;;;;;;5060675;28;20509;-63
2023/07/15 09:24:34;;;;;;;9.00;6.73;;;27.00;91.50;;;;;;5062577;28;20447;-62
2023/07/15 09:27:01;;;;;;;13.13;7.20;;;27.10;91.50;;;;;;5066540;28;20485;-62
2023/07/15 09:29:28;;;;;;;15.73;6.40;;;27.00;91.60;;;;;;5061211;28;20449;-62
2023/07/15 09:31:55;;;;;;;11.30;7.60;;;27.00;92.00;;;;;;5066759;28;20483;-61
2023/07/15 09:34:24;;;;;;;11.50;7.20;;;26.90;91.90;;;;;;5059416;28;20953;-62
2023/07/15 09:36:51;;;;;;;9.83;6.27;;;26.70;92.70;;;;;;5058625;28;20854;-61
2023/07/15 09:39:22;;;;;;;9.57;6.77;;;26.40;93.30;;;;;;5061336;28;21235;-62
2023/07/15 09:42:02;;;;;;;27.03;7.80;;;26.20;93.80;;;;;;5063453;28;20464;-62
2023/07/15 09:44:39;;;;;;;15.03;8.27;;;26.10;94.70;;;;;;5049357;28;20556;-61
2023/07/15 09:47:06;;;;;;;10.17;8.20;;;25.80;95.50;;;;;;5058819;28;20659;-62
2023/07/15 09:49:35;;;;;;;18.40;6.73;;;25.70;95.50;;;;;;5056344;28;20459;-62
2023/07/15 09:52:04;;;;;;;14.80;8.63;;;25.50;96.20;;;;;;5057419;28;20469;-62
2023/07/15 09:54:33;;;;;;;24.90;8.20;;;25.40;97.30;;;;;;5058889;28;20875;-62
2023/07/15 09:57:04;;;;;;;14.40;9.27;;;25.40;97.90;;;;;;5057078;28;20538;-62
2023/07/15 09:59:35;;;;;;;19.80;10.83;;;25.30;97.60;;;;;;5056720;28;20566;-62
2023/07/15 10:02:10;;;;;;;21.30;8.73;;;25.20;98.10;;;;;;5063938;28;20452;-63
2023/07/15 10:04:43;;;;;;;15.93;10.23;;;25.20;98.70;;;;;;5059566;28;20802;-63
2023/07/15 10:07:10;;;;;;;21.40;10.33;;;24.90;99.90;;;;;;5062955;28;20989;-63
2023/07/15 10:09:38;;;;;;;12.17;9.27;;;24.90;99.90;;;;;;5058137;28;20891;-62
2023/07/15 10:12:07;;;;;;;14.00;9.77;;;24.70;99.90;;;;;;5062187;28;20568;-63
2023/07/15 10:14:34;;;;;;;26.93;9.70;;;24.40;99.90;;;;;;5056053;28;20539;-62
2023/07/15 10:17:09;;;;;;;16.53;9.80;;;24.40;99.90;;;;;;5056037;28;20479;-62
2023/07/15 10:19:41;;;;;;;21.63;11.20;;;24.30;99.90;;;;;;5059187;28;20756;-63
2023/07/15 10:22:08;;;;;;;21.47;11.50;;;24.20;99.90;;;;;;5054860;28;20601;-62
2023/07/15 10:24:36;;;;;;;20.43;11.43;;;24.00;99.90;;;;;;5056847;28;20719;-62
2023/07/15 10:27:06;;;;;;;14.67;10.03;;;23.70;99.90;;;;;;5051439;28;20534;-61
2023/07/15 10:29:37;;;;;;;21.53;11.67;;;23.60;99.90;;;;;;5059494;28;21140;-61
2023/07/15 10:32:12;;;;;;;23.90;11.70;;;23.50;99.90;;;;;;5058091;28;20975;-61
2023/07/15 10:34:42;;;;;;;23.97;12.03;;;23.50;99.90;;;;;;5059457;28;20485;-61
2023/07/15 10:37:11;;;;;;;20.37;14.20;;;23.40;99.90;;;;;;5057619;28;20479;-62
2023/07/15 10:39:38;;;;;;;19.90;11.90;;;23.40;99.90;;;;;;5057881;28;20566;-63
2023/07/15 10:42:10;;;;;;;17.70;12.20;;;23.30;99.90;;;;;;5065430;28;20474;-62
2023/07/15 10:44:44;;;;;;;20.67;12.23;;;23.30;99.90;;;;;;5060362;28;20509;-62
2023/07/15 10:47:14;;;;;;;23.80;16.40;;;23.30;99.90;;;;;;5063485;28;20592;-62
2023/07/15 10:49:41;;;;;;;17.63;11.30;;;23.30;99.90;;;;;;5058200;28;20870;-61
2023/07/15 10:52:09;;;;;;;19.93;14.53;;;23.20;99.90;;;;;;5067341;28;20947;-63
2023/07/15 10:54:38;;;;;;;21.40;10.87;;;23.10;99.90;;;;;;5056233;28;20697;-61
2023/07/15 10:57:09;;;;;;;19.17;13.17;;;23.10;99.90;;;;;;5057395;28;20479;-63
2023/07/15 10:59:37;;;;;;;29.57;12.33;;;22.90;99.90;;;;;;5060182;28;20455;-62
2023/07/15 11:02:06;;;;;;;17.70;11.77;;;22.90;99.90;;;;;;5055073;28;20477;-63
2023/07/15 11:04:33;;;;;;;16.27;10.97;;;22.90;99.90;;;;;;5055957;28;20538;-64
2023/07/15 11:07:01;;;;;;;20.50;10.97;;;22.90;99.90;;;;;;5056264;28;20474;-62
2023/07/15 11:09:29;;;;;;;12.43;9.50;;;23.00;99.90;;;;;;5054847;28;20965;-63
2023/07/15 11:11:56;;;;;;;16.43;11.50;;;23.00;99.90;;;;;;5064727;28;20485;-63
2023/07/15 11:14:25;;;;;;;22.27;10.10;;;23.30;99.90;;;;;;5060620;28;20471;-62
2023/07/15 11:16:53;;;;;;;16.90;11.13;;;23.50;99.90;;;;;;5060833;28;20475;-64
2023/07/15 11:19:23;;;;;;;14.30;10.80;;;23.80;99.90;;;;;;5032718;28;20486;-64
2023/07/15 11:21:52;;;;;;;10.30;8.10;;;24.10;99.90;;;;;;5043982;28;21115;-63
2023/07/15 11:24:22;;;;;;;20.13;14.03;;;24.30;99.90;;;;;;5012792;28;21165;-64
2023/07/15 11:26:49;;;;;;;20.50;10.93;;;24.70;99.90;;;;;;5009590;28;20485;-62
2023/07/15 11:29:18;;;;;;;14.30;10.90;;;24.80;99.90;;;;;;5021639;28;20986;-62
2023/07/15 11:31:46;;;;;;;19.63;9.83;;;24.90;99.90;;;;;;5037915;28;20974;-61
2023/07/15 11:34:15;;;;;;;13.30;7.80;;;25.10;99.90;;;;;;5025550;28;20446;-63
2023/07/15 11:36:44;;;;;;;15.50;10.53;;;25.10;99.90;;;;;;5024496;28;20498;-61
2023/07/15 11:39:12;;;;;;;17.90;12.77;;;25.10;99.90;;;;;;5025331;28;20484;-63
2023/07/15 11:41:39;;;;;;;22.30;10.37;;;25.10;99.90;;;;;;5024864;28;20571;-62
2023/07/15 11:44:09;;;;;;;19.27;13.67;;;25.10;99.90;;;;;;5017186;28;20504;-61
2023/07/15 11:46:37;;;;;;;13.03;10.90;;;25.30;99.90;;;;;;5017280;28;20454;-62
2023/07/15 11:49:05;;;;;;;21.13;11.00;;;25.40;99.90;;;;;;5018059;28;20574;-61
2023/07/15 11:51:33;;;;;;;12.93;9.50;;;25.40;99.90;;;;;;5025220;28;21154;-63
2023/07/15 11:54:02;;;;;;;18.70;10.60;;;25.60;99.90;;;;;;5023467;28;20481;-62
2023/07/15 11:56:36;;;;;;;11.90;8.37;;;25.70;99.90;;;;;;5016957;28;20451;-62
2023/07/15 11:59:03;;;;;;;12.70;9.33;;;25.70;99.90;;;;;;5024029;28;20450;-62
2023/07/15 12:01:30;;;;;;;18.93;7.00;;;25.70;99.90;;;;;;5022622;28;20447;-61
2023/07/15 12:03:57;;;;;;;13.57;9.73;;;25.70;99.90;;;;;;5022093;28;20737;-63
2023/07/15 12:06:25;;;;;;;12.37;9.57;;;25.80;99.90;;;;;;5016666;28;21326;-62
2023/07/15 12:09:05;;;;;;;9.00;7.87;;;25.90;99.90;;;;;;5000242;28;20468;-62
2023/07/15 12:11:34;;;;;;;11.90;7.77;;;25.90;99.90;;;;;;5018280;28;21172;-63
2023/07/15 12:14:03;;;;;;;9.27;7.67;;;25.90;99.90;;;;;;5021210;28;20529;-64
2023/07/15 12:16:31;;;;;;;10.20;6.53;;;25.90;99.90;;;;;;5015619;28;20478;-64
2023/07/15 12:18:58;;;;;;;13.60;8.70;;;25.80;99.90;;;;;;5031227;28;20468;-62
2023/07/15 12:21:25;;;;;;;9.50;7.80;;;25.70;99.90;;;;;;5026957;28;20476;-62
2023/07/15 12:23:52;;;;;;;11.10;7.60;;;25.70;99.90;;;;;;5025894;28;20490;-61
2023/07/15 12:26:21;;;;;;;8.73;6.30;;;25.80;99.90;;;;;;5021982;28;20484;-62
2023/07/15 12:28:48;;;;;;;7.20;6.50;;;25.70;99.90;;;;;;5017340;28;20491;-62
2023/07/15 12:31:15;;;;;;;11.13;8.90;;;25.70;99.90;;;;;;5025281;28;20489;-63
2023/07/15 12:33:43;;;;;;;8.23;7.47;;;25.70;99.90;;;;;;5023032;28;20834;-62
2023/07/15 12:36:11;;;;;;;6.87;6.27;;;25.70;99.90;;;;;;5022601;28;20483;-62
2023/07/15 12:38:38;;;;;;;7.17;6.20;;;25.70;99.90;;;;;;5026920;28;20483;-61
2023/07/15 12:41:07;;;;;;;8.40;6.90;;;25.70;99.90;;;;;;5022990;28;20481;-63